createdAt,value
2023-04-12T00:03:16.251Z,8.53
2023-04-12T00:05:56.156Z,8.52
2023-04-12T00:08:31.337Z,8.51
2023-04-12T00:11:05.181Z,8.51
2023-04-12T00:13:38.425Z,8.50
2023-04-12T00:16:13.215Z,8.50
2023-04-12T00:18:46.871Z,8.50
2023-04-12T00:31:37.185Z,8.36
2023-04-12T00:34:17.826Z,8.35
2023-04-12T00:36:51.379Z,8.33
2023-04-12T00:39:25.146Z,8.34
2023-04-12T00:42:03.163Z,8.34
2023-04-12T00:58:25.171Z,8.26
2023-04-12T01:00:58.473Z,8.31
2023-04-12T01:03:32.237Z,8.29
2023-04-12T01:06:15.432Z,8.30
2023-04-12T01:09:06.159Z,8.28
2023-04-12T01:11:46.633Z,8.26
2023-04-12T01:25:00.161Z,8.16
2023-04-12T01:27:51.180Z,8.15
2023-04-12T01:30:28.730Z,8.12
2023-04-12T01:33:14.081Z,8.13
2023-04-12T01:35:49.490Z,8.13
2023-04-12T01:38:23.226Z,8.11
2023-04-12T01:51:47.144Z,8.12
2023-04-12T01:54:27.048Z,8.11
2023-04-12T01:57:11.141Z,8.10
2023-04-12T01:59:46.444Z,8.07
2023-04-12T02:02:20.264Z,8.04
2023-04-12T02:18:57.130Z,7.84
2023-04-12T02:21:46.151Z,7.84
2023-04-12T02:24:19.590Z,7.86
2023-04-12T02:26:53.141Z,7.85
2023-04-12T02:29:27.551Z,7.83
2023-04-12T02:32:01.152Z,7.82
2023-04-12T02:45:14.141Z,7.65
2023-04-12T02:47:48.149Z,7.63
2023-04-12T02:50:24.128Z,7.64
2023-04-12T02:53:10.208Z,7.65
2023-04-12T02:55:54.141Z,7.66
2023-04-12T02:58:29.727Z,7.68
2023-04-12T03:11:23.164Z,7.72
2023-04-12T03:14:04.149Z,7.67
2023-04-12T03:16:37.434Z,7.62
2023-04-12T03:19:17.158Z,7.57
2023-04-12T03:21:54.424Z,7.54
2023-04-12T03:38:25.136Z,7.37
2023-04-12T03:40:59.482Z,7.38
2023-04-12T03:43:42.356Z,7.41
2023-04-12T03:46:18.155Z,7.36
2023-04-12T03:48:58.135Z,7.36
2023-04-12T03:51:32.810Z,7.34
2023-04-12T04:04:01.714Z,7.20
2023-04-12T04:06:42.115Z,7.15
2023-04-12T04:09:18.344Z,7.12
2023-04-12T04:11:52.119Z,7.07
2023-04-12T04:14:26.386Z,7.04
2023-04-12T04:17:00.149Z,7.02
2023-04-12T04:30:48.141Z,6.96
2023-04-12T04:33:22.184Z,6.96
2023-04-12T04:35:56.153Z,6.94
2023-04-12T04:38:30.693Z,6.92
2023-04-12T04:41:13.107Z,6.93
2023-04-12T04:43:55.098Z,6.94
2023-04-12T04:57:32.105Z,6.84
2023-04-12T05:00:15.099Z,6.82
2023-04-12T05:02:54.472Z,6.79
2023-04-12T05:05:36.112Z,6.78
2023-04-12T05:08:11.016Z,6.76
2023-04-12T05:10:44.140Z,6.78
2023-04-12T05:13:19.811Z,6.78
2023-04-12T05:26:08.085Z,6.88
2023-04-12T05:28:55.250Z,6.92
2023-04-12T05:31:28.459Z,6.93
2023-04-12T05:34:02.101Z,6.97
2023-04-12T05:36:41.401Z,6.97
2023-04-12T05:53:04.104Z,7.05
2023-04-12T05:55:38.187Z,7.08
2023-04-12T05:58:13.093Z,7.09
2023-04-12T06:00:49.024Z,7.08
2023-04-12T06:03:23.368Z,7.08
2023-04-12T06:20:05.090Z,7.21
2023-04-12T06:22:46.118Z,7.24
2023-04-12T06:25:20.431Z,7.29
2023-04-12T06:27:55.106Z,7.33
2023-04-12T06:30:28.747Z,7.36
2023-04-12T06:33:02.403Z,7.40
2023-04-12T06:46:15.160Z,7.81
2023-04-12T06:48:48.348Z,7.88
2023-04-12T06:51:22.174Z,7.93
2023-04-12T06:53:55.330Z,7.99
2023-04-12T06:56:30.115Z,8.04
2023-04-12T06:59:03.545Z,8.08
2023-04-12T07:11:54.074Z,8.27
2023-04-12T07:14:34.113Z,8.28
2023-04-12T07:17:07.374Z,8.29
2023-04-12T07:19:42.202Z,8.29
2023-04-12T07:22:15.350Z,8.29
2023-04-12T07:24:49.125Z,8.29
2023-04-12T07:27:24.355Z,8.29
2023-04-12T07:40:15.060Z,8.32
2023-04-12T07:42:57.074Z,8.32
2023-04-12T07:45:30.312Z,8.33
2023-04-12T07:48:04.140Z,8.35
2023-04-12T07:50:37.481Z,8.36
2023-04-12T07:53:26.121Z,8.38
2023-04-12T08:06:45.097Z,8.54
2023-04-12T08:09:18.319Z,8.57
2023-04-12T08:11:52.090Z,8.62
2023-04-12T08:14:25.387Z,8.65
2023-04-12T08:16:59.093Z,8.69
2023-04-12T08:33:36.061Z,8.91
2023-04-12T08:36:17.100Z,8.96
2023-04-12T08:38:50.421Z,8.99
2023-04-12T08:41:24.105Z,9.03
2023-04-12T08:44:00.399Z,9.07
2023-04-12T08:46:42.145Z,9.11
2023-04-12T08:59:09.106Z,9.28
2023-04-12T09:01:42.657Z,9.32
2023-04-12T09:04:17.041Z,9.37
2023-04-12T09:06:52.764Z,9.44
2023-04-12T09:09:26.103Z,9.49
2023-04-12T09:12:09.795Z,9.55
2023-04-12T09:25:07.053Z,9.80
2023-04-12T09:27:58.062Z,9.86
2023-04-12T09:30:41.755Z,9.93
2023-04-12T09:33:22.107Z,10.00
2023-04-12T09:36:00.821Z,10.10
2023-04-12T09:38:41.098Z,10.20
2023-04-12T09:51:59.537Z,10.72
2023-04-12T09:54:38.992Z,10.84
2023-04-12T09:57:20.089Z,10.96
2023-04-12T09:59:59.837Z,11.07
2023-04-12T10:02:48.375Z,11.20
2023-04-12T10:05:24.294Z,11.28
2023-04-12T10:08:00.213Z,11.40
2023-04-12T10:18:30.041Z,11.78
2023-04-12T10:21:11.084Z,11.90
2023-04-12T10:23:46.630Z,11.98
2023-04-12T10:26:23.045Z,12.06
2023-04-12T10:29:27.064Z,12.13
2023-04-12T10:32:28.091Z,12.22
2023-04-12T10:45:47.089Z,12.66
2023-04-12T10:48:31.044Z,12.74
2023-04-12T10:51:26.062Z,12.82
2023-04-12T10:54:31.310Z,12.92
2023-04-12T10:57:14.082Z,13.01
2023-04-12T11:13:51.044Z,13.49
2023-04-12T11:16:31.166Z,13.56
2023-04-12T11:19:07.747Z,13.64
2023-04-12T11:21:48.062Z,13.70
2023-04-12T11:24:22.767Z,13.79
2023-04-12T11:26:56.077Z,13.83
2023-04-12T11:40:11.121Z,14.16
2023-04-12T11:42:44.365Z,14.22
2023-04-12T11:45:18.599Z,14.28
2023-04-12T11:47:52.492Z,14.37
2023-04-12T11:50:35.083Z,14.41
2023-04-12T11:53:12.195Z,14.49
2023-04-12T12:06:09.233Z,14.76
2023-04-12T12:08:49.132Z,14.82
2023-04-12T12:11:23.921Z,14.89
2023-04-12T12:14:01.238Z,14.95
2023-04-12T12:16:34.384Z,15.01
2023-04-12T12:19:11.086Z,15.08
2023-04-12T12:32:27.165Z,15.32
2023-04-12T12:35:01.179Z,15.36
2023-04-12T12:37:36.130Z,15.42
2023-04-12T12:40:12.371Z,15.50
2023-04-12T12:42:54.051Z,15.56
2023-04-12T12:45:32.988Z,15.61
2023-04-12T12:48:15.221Z,15.67
2023-04-12T13:01:25.122Z,15.94
2023-04-12T13:04:00.431Z,16.04
2023-04-12T13:06:34.083Z,16.09
2023-04-12T13:09:07.396Z,16.15
2023-04-12T13:11:41.084Z,16.24
2023-04-12T13:14:14.309Z,16.34
2023-04-12T13:27:05.028Z,16.72
2023-04-12T13:29:45.094Z,16.80
2023-04-12T13:32:18.317Z,16.87
2023-04-12T13:34:52.044Z,16.89
2023-04-12T13:37:25.438Z,16.99
2023-04-12T13:53:41.080Z,17.35
2023-04-12T13:56:14.532Z,17.39
2023-04-12T13:58:48.077Z,17.43
2023-04-12T14:01:21.445Z,17.49
2023-04-12T14:03:55.087Z,17.46
2023-04-12T14:06:28.297Z,17.40
2023-04-12T14:09:04.094Z,17.33
2023-04-12T14:19:24.044Z,16.94
2023-04-12T14:22:04.324Z,16.86
2023-04-12T14:24:39.314Z,16.77
2023-04-12T14:27:13.058Z,16.71
2023-04-12T14:29:46.518Z,16.62
2023-04-12T14:32:20.069Z,16.59
2023-04-12T14:46:11.127Z,16.41
2023-04-12T14:48:44.305Z,16.39
2023-04-12T14:51:18.095Z,16.35
2023-04-12T14:53:51.277Z,16.34
2023-04-12T14:56:28.318Z,16.31
2023-04-12T14:59:03.303Z,16.29
2023-04-12T15:15:19.081Z,16.32
2023-04-12T15:17:57.381Z,16.32
2023-04-12T15:20:38.065Z,16.30
2023-04-12T15:23:11.332Z,16.27
2023-04-12T15:25:46.662Z,16.22
2023-04-12T15:28:20.285Z,16.18
2023-04-12T15:41:11.046Z,15.99
2023-04-12T15:43:51.057Z,15.95
2023-04-12T15:46:24.357Z,15.89
2023-04-12T15:48:58.084Z,15.87
2023-04-12T15:51:31.556Z,15.84
2023-04-12T15:54:05.108Z,15.81
2023-04-12T16:07:17.061Z,15.80
2023-04-12T16:09:50.293Z,15.89
2023-04-12T16:12:24.078Z,16.02
2023-04-12T16:14:57.466Z,16.17
2023-04-12T16:17:31.075Z,16.30
2023-04-12T16:20:05.622Z,16.32
2023-04-12T16:22:41.086Z,16.29
2023-04-12T16:33:11.094Z,16.06
2023-04-12T16:35:51.074Z,15.99
2023-04-12T16:38:26.388Z,15.92
2023-04-12T16:41:00.089Z,15.86
2023-04-12T16:43:33.392Z,15.82
2023-04-12T16:46:22.130Z,15.78
2023-04-12T16:48:55.568Z,15.74
2023-04-12T17:01:46.073Z,15.45
2023-04-12T17:04:26.136Z,15.38
2023-04-12T17:06:59.357Z,15.34
2023-04-12T17:09:33.057Z,15.28
2023-04-12T17:12:06.950Z,15.25
2023-04-12T17:28:08.077Z,15.03
2023-04-12T17:30:41.332Z,15.01
2023-04-12T17:33:16.689Z,14.98
2023-04-12T17:35:50.302Z,14.93
2023-04-12T17:38:24.061Z,14.90
2023-04-12T17:40:57.402Z,14.87
2023-04-12T17:43:33.090Z,14.82
2023-04-12T17:53:30.044Z,14.74
2023-04-12T17:56:10.070Z,14.72
2023-04-12T17:58:45.594Z,14.70
2023-04-12T18:01:19.118Z,14.66
2023-04-12T18:03:52.404Z,14.63
2023-04-12T18:06:26.073Z,14.61
2023-04-12T18:08:59.376Z,14.59
2023-04-12T18:21:50.023Z,14.46
2023-04-12T18:24:30.061Z,14.45
2023-04-12T18:27:03.512Z,14.40
2023-04-12T18:29:37.061Z,14.37
2023-04-12T18:32:10.441Z,14.37
2023-04-12T18:48:33.062Z,14.23
2023-04-12T18:51:06.292Z,14.22
2023-04-12T18:53:40.051Z,14.20
2023-04-12T18:56:14.024Z,14.18
2023-04-12T18:58:54.996Z,14.17
2023-04-12T19:01:29.517Z,14.15
2023-04-12T19:04:05.190Z,14.14
2023-04-12T19:13:50.041Z,14.09
2023-04-12T19:16:30.116Z,14.06
2023-04-12T19:19:05.207Z,14.06
2023-04-12T19:21:40.083Z,14.03
2023-04-12T19:24:13.393Z,14.01
2023-04-12T19:26:47.229Z,14.00
2023-04-12T19:29:20.408Z,13.98
2023-04-12T19:42:11.036Z,13.94
2023-04-12T19:44:51.040Z,13.92
2023-04-12T19:47:24.332Z,13.91
2023-04-12T19:49:58.086Z,13.89
2023-04-12T19:52:31.296Z,13.87
2023-04-12T20:08:47.090Z,13.78
2023-04-12T20:11:20.373Z,13.78
2023-04-12T20:13:59.112Z,13.76
2023-04-12T20:16:32.326Z,13.75
2023-04-12T20:19:06.036Z,13.75
2023-04-12T20:21:39.465Z,13.74
2023-04-12T20:24:15.042Z,13.72
2023-04-12T20:34:00.043Z,13.64
2023-04-12T20:36:40.046Z,13.64
2023-04-12T20:39:15.315Z,13.63
2023-04-12T20:41:49.290Z,13.63
2023-04-12T20:44:22.362Z,13.62
2023-04-12T20:46:56.147Z,13.61
2023-04-12T20:49:29.848Z,13.59
2023-04-12T21:02:20.222Z,13.54
2023-04-12T21:05:00.030Z,13.53
2023-04-12T21:07:33.580Z,13.52
2023-04-12T21:10:07.059Z,13.53
2023-04-12T21:12:41.333Z,13.52
2023-04-12T21:28:57.290Z,13.37
2023-04-12T21:31:31.446Z,13.37
2023-04-12T21:34:05.040Z,13.36
2023-04-12T21:36:38.382Z,13.35
2023-04-12T21:39:12.049Z,13.34
2023-04-12T21:41:45.299Z,13.34
2023-04-12T21:44:21.315Z,13.33
2023-04-12T21:54:18.017Z,13.30
2023-04-12T21:56:58.033Z,13.30
2023-04-12T21:59:33.252Z,13.30
2023-04-12T22:02:07.122Z,13.29
2023-04-12T22:04:40.381Z,13.27
2023-04-12T22:07:14.068Z,13.28
2023-04-12T22:21:05.048Z,13.19
2023-04-12T22:23:38.762Z,13.17
2023-04-12T22:26:14.060Z,13.14
2023-04-12T22:28:47.288Z,13.12
2023-04-12T22:31:21.118Z,13.12
2023-04-12T22:33:54.302Z,13.09
2023-04-12T22:50:11.102Z,12.96
2023-04-12T22:52:44.302Z,12.95
2023-04-12T22:55:26.083Z,12.92
2023-04-12T22:57:59.360Z,12.91
2023-04-12T23:00:33.030Z,12.90
2023-04-12T23:03:06.341Z,12.89
2023-04-12T23:15:57.060Z,12.82
2023-04-12T23:18:37.053Z,12.81
2023-04-12T23:21:10.383Z,12.79
2023-04-12T23:23:44.071Z,12.79
2023-04-12T23:26:17.260Z,12.75
2023-04-12T23:28:51.049Z,12.74
2023-04-12T23:42:03.063Z,12.70
2023-04-12T23:44:36.253Z,12.67
2023-04-12T23:47:10.073Z,12.65
2023-04-12T23:49:43.355Z,12.62
2023-04-12T23:52:17.864Z,12.62
